Terminal Aerodrome Forecast
Issued by NWS Austin/San Antonio, TX

Home | Current Version | Previous Version | Text Only | Print | Product List | Glossary On
Versions: 1 2 3 4 5 6 7 8 9 10 11 12 13 14 15 16 17 18 19 20 21 22 23 24 25 26
000
FTUS44 KEWX 282338
TAFAUS
TAF
KAUS 282338Z 2900/3006 15016G22KT P6SM SCT040 SCT250
     FM290500 17005KT P6SM OVC015
     FM290700 25010KT 6SM -SHRA OVC008
      TEMPO 2907/2911 2SM +TSRA OVC008CB
     FM291700 16012KT P6SM BKN025 BKN040=

USA.gov is the U.S. government's official web portal to all federal, state and local government web resources and services.